createdAt,value
2023-01-29T00:01:23.858Z,99441.53
2023-01-29T00:03:51.728Z,99438.67
2023-01-29T00:06:18.600Z,99440.73
2023-01-29T00:08:45.592Z,99443.31
2023-01-29T00:11:13.623Z,99443.69
2023-01-29T00:13:40.435Z,99443.45
2023-01-29T00:16:07.439Z,99443.83
2023-01-29T00:18:38.499Z,99453.40
2023-01-29T00:21:10.735Z,99449.55
2023-01-29T00:23:37.615Z,99449.60
2023-01-29T00:26:04.804Z,99453.07
2023-01-29T00:28:31.709Z,99450.29
2023-01-29T00:30:59.291Z,99457.02
2023-01-29T00:33:26.153Z,99458.55
2023-01-29T00:35:52.953Z,99457.95
2023-01-29T00:38:19.676Z,99457.56
2023-01-29T00:41:01.658Z,99457.61
2023-01-29T00:43:44.076Z,99462.58
2023-01-29T00:46:11.327Z,99464.92
2023-01-29T00:48:38.129Z,99472.91
2023-01-29T00:51:07.545Z,99472.95
2023-01-29T00:53:34.364Z,99471.80
2023-01-29T00:56:01.153Z,99470.52
2023-01-29T00:58:34.297Z,99471.18
2023-01-29T01:01:02.801Z,99476.85
2023-01-29T01:03:30.188Z,99479.44
2023-01-29T01:06:12.341Z,99472.95
2023-01-29T01:08:54.493Z,99471.89
2023-01-29T01:11:21.638Z,99473.34
2023-01-29T01:13:48.362Z,99475.55
2023-01-29T01:16:19.218Z,99480.13
2023-01-29T01:18:46.123Z,99485.52
2023-01-29T01:21:13.304Z,99484.21
2023-01-29T01:23:40.179Z,99482.97
2023-01-29T01:26:11.108Z,99480.89
2023-01-29T01:28:38.921Z,99478.10
2023-01-29T01:31:14.286Z,99474.31
2023-01-29T01:33:41.452Z,99471.91
2023-01-29T01:36:11.608Z,99469.60
2023-01-29T01:38:44.704Z,99475.80
2023-01-29T01:41:13.815Z,99469.05
2023-01-29T01:43:58.464Z,99461.83
2023-01-29T01:46:28.571Z,99465.90
2023-01-29T01:49:03.029Z,99468.78
2023-01-29T01:51:33.282Z,99461.59
2023-01-29T01:54:08.399Z,99456.86
2023-01-29T01:56:43.534Z,99458.38
2023-01-29T01:59:15.542Z,99457.79
2023-01-29T02:01:47.967Z,99447.59
2023-01-29T02:04:34.158Z,99448.05
2023-01-29T02:07:18.970Z,99437.51
2023-01-29T02:09:53.288Z,99442.77
2023-01-29T02:12:22.372Z,99434.71
2023-01-29T02:14:51.514Z,99424.30
2023-01-29T02:17:20.171Z,99425.73
2023-01-29T02:19:57.350Z,99432.16
2023-01-29T02:22:29.372Z,99440.38
2023-01-29T02:24:56.428Z,99435.84
2023-01-29T02:27:46.046Z,99434.31
2023-01-29T02:30:22.955Z,99431.66
2023-01-29T02:33:13.901Z,99431.01
2023-01-29T02:35:51.099Z,99423.65
2023-01-29T02:38:35.050Z,99421.64
2023-01-29T02:41:08.181Z,99421.77
2023-01-29T02:43:54.920Z,99420.98
2023-01-29T02:46:40.426Z,99422.11
2023-01-29T02:49:10.461Z,99422.42
2023-01-29T02:51:49.974Z,99423.76
2023-01-29T02:54:39.701Z,99428.68
2023-01-29T02:57:18.468Z,99429.47
2023-01-29T02:59:54.313Z,99439.48
2023-01-29T03:02:33.614Z,99445.77
2023-01-29T03:05:04.933Z,99450.92
2023-01-29T03:07:42.784Z,99458.23
2023-01-29T03:10:37.199Z,99453.44
2023-01-29T03:13:13.467Z,99452.69
2023-01-29T03:15:51.469Z,99457.17
2023-01-29T03:18:36.841Z,99460.55
2023-01-29T03:21:26.636Z,99461.30
2023-01-29T03:24:12.713Z,99463.19
2023-01-29T03:26:58.206Z,99466.45
2023-01-29T03:29:48.099Z,99472.34
2023-01-29T03:32:18.845Z,99472.08
2023-01-29T03:34:52.010Z,99467.30
2023-01-29T03:37:30.101Z,99470.94
2023-01-29T03:39:57.020Z,99471.86
2023-01-29T03:42:33.411Z,99471.80
2023-01-29T03:45:08.521Z,99469.04
2023-01-29T03:48:04.349Z,99465.70
2023-01-29T03:50:50.638Z,99464.30
2023-01-29T03:53:31.832Z,99463.49
2023-01-29T03:56:08.653Z,99465.06
2023-01-29T03:58:43.820Z,99464.24
2023-01-29T04:01:12.736Z,99453.90
2023-01-29T04:03:48.373Z,99447.70
2023-01-29T04:06:20.731Z,99438.85
2023-01-29T04:09:03.578Z,99436.72
2023-01-29T04:11:33.766Z,99447.02
2023-01-29T04:14:01.200Z,99453.26
2023-01-29T04:16:35.058Z,99453.37
2023-01-29T04:19:23.873Z,99450.42
2023-01-29T04:22:00.510Z,99444.08
2023-01-29T04:24:27.524Z,99442.36
2023-01-29T04:27:05.714Z,99427.71
2023-01-29T04:29:48.703Z,99416.28
2023-01-29T04:32:32.026Z,99411.36
2023-01-29T04:35:07.827Z,99409.17
2023-01-29T04:37:44.157Z,99406.36
2023-01-29T04:40:18.533Z,99400.59
2023-01-29T04:42:59.796Z,99395.59
2023-01-29T04:45:39.521Z,99392.55
2023-01-29T04:48:21.635Z,99394.14
2023-01-29T04:51:10.286Z,99387.16
2023-01-29T04:53:52.785Z,99390.52
2023-01-29T04:56:26.406Z,99387.15
2023-01-29T04:58:59.792Z,99379.77
2023-01-29T05:01:30.376Z,99386.63
2023-01-29T05:03:58.380Z,99394.18
2023-01-29T05:06:26.008Z,99393.55
2023-01-29T05:08:53.918Z,99390.98
2023-01-29T05:11:20.773Z,99393.85
2023-01-29T05:13:49.148Z,99396.02
2023-01-29T05:16:23.993Z,99394.06
2023-01-29T05:18:51.775Z,99397.81
2023-01-29T05:21:19.746Z,99402.11
2023-01-29T05:23:57.621Z,99407.48
2023-01-29T05:26:40.375Z,99410.65
2023-01-29T05:29:07.299Z,99417.69
2023-01-29T05:31:34.175Z,99425.64
2023-01-29T05:34:00.955Z,99428.39
2023-01-29T05:36:27.810Z,99423.79
2023-01-29T05:38:54.595Z,99420.02
2023-01-29T05:41:21.282Z,99416.02
2023-01-29T05:43:48.050Z,99414.48
2023-01-29T05:46:14.834Z,99408.70
2023-01-29T05:48:41.614Z,99405.70
2023-01-29T05:51:08.342Z,99403.60
2023-01-29T05:53:35.123Z,99407.31
2023-01-29T05:56:04.033Z,99412.67
2023-01-29T05:58:32.149Z,99418.31
2023-01-29T06:00:59.035Z,99418.44
2023-01-29T06:03:25.827Z,99418.31
2023-01-29T06:05:52.568Z,99420.88
2023-01-29T06:08:19.410Z,99419.11
2023-01-29T06:10:46.144Z,99419.86
2023-01-29T06:13:12.954Z,99419.06
2023-01-29T06:15:40.977Z,99424.45
2023-01-29T06:18:07.813Z,99419.09
2023-01-29T06:20:34.533Z,99421.89
2023-01-29T06:23:01.292Z,99428.95
2023-01-29T06:25:28.382Z,99431.18
2023-01-29T06:27:56.599Z,99433.23
2023-01-29T06:30:24.533Z,99437.92
2023-01-29T06:32:51.337Z,99438.91
2023-01-29T06:35:18.258Z,99436.64
2023-01-29T06:37:45.003Z,99442.16
2023-01-29T06:40:12.328Z,99438.42
2023-01-29T06:42:39.031Z,99435.85
2023-01-29T06:45:09.484Z,99429.77
2023-01-29T06:47:36.274Z,99424.91
2023-01-29T06:50:03.799Z,99423.69
2023-01-29T06:52:30.628Z,99421.78
2023-01-29T06:54:57.440Z,99421.34
2023-01-29T06:57:24.320Z,99420.20
2023-01-29T06:59:51.071Z,99423.06
2023-01-29T07:02:18.151Z,99429.13
2023-01-29T07:04:44.905Z,99427.77
2023-01-29T07:07:13.387Z,99426.48
2023-01-29T07:09:41.525Z,99426.76
2023-01-29T07:12:09.521Z,99425.53
2023-01-29T07:14:36.342Z,99432.60
2023-01-29T07:17:03.479Z,99436.25
2023-01-29T07:19:30.183Z,99435.29
2023-01-29T07:21:56.972Z,99431.58
2023-01-29T07:24:24.565Z,99430.34
2023-01-29T07:26:51.631Z,99437.19
2023-01-29T07:29:18.504Z,99440.13
2023-01-29T07:31:45.371Z,99445.29
2023-01-29T07:34:12.130Z,99441.46
2023-01-29T07:36:38.843Z,99439.83
2023-01-29T07:39:05.731Z,99440.77
2023-01-29T07:41:32.508Z,99443.42
2023-01-29T07:43:59.813Z,99447.14
2023-01-29T07:46:26.574Z,99443.25
2023-01-29T07:48:53.309Z,99450.66
2023-01-29T07:51:21.462Z,99447.31
2023-01-29T07:53:48.228Z,99444.52
2023-01-29T07:56:15.161Z,99441.73
2023-01-29T07:58:42.009Z,99447.54
2023-01-29T08:01:09.019Z,99452.33
2023-01-29T08:03:36.201Z,99454.80
2023-01-29T08:06:04.381Z,99464.45
2023-01-29T08:08:31.268Z,99473.29
2023-01-29T08:11:01.620Z,99478.36
2023-01-29T08:13:28.488Z,99481.59
2023-01-29T08:15:59.861Z,99483.98
2023-01-29T08:18:26.628Z,99488.30
2023-01-29T08:20:53.378Z,99491.09
2023-01-29T08:23:20.333Z,99485.44
2023-01-29T08:25:47.202Z,99488.48
2023-01-29T08:28:13.994Z,99487.45
2023-01-29T08:30:40.923Z,99485.30
2023-01-29T08:33:07.714Z,99486.61
2023-01-29T08:35:34.451Z,99483.55
2023-01-29T08:38:03.453Z,99480.33
2023-01-29T08:40:33.403Z,99479.51
2023-01-29T08:43:04.116Z,99475.98
2023-01-29T08:45:35.030Z,99476.25
2023-01-29T08:48:01.968Z,99479.37
2023-01-29T08:50:30.623Z,99488.77
2023-01-29T08:52:59.398Z,99492.03
2023-01-29T08:55:27.101Z,99489.39
2023-01-29T08:57:54.225Z,99489.64
2023-01-29T09:00:21.346Z,99483.70
2023-01-29T09:02:48.342Z,99484.95
2023-01-29T09:05:15.628Z,99486.66
2023-01-29T09:07:42.540Z,99489.64
2023-01-29T09:10:12.045Z,99481.52
2023-01-29T09:12:38.989Z,99472.78
2023-01-29T09:15:06.341Z,99472.05
2023-01-29T09:17:33.160Z,99469.09
2023-01-29T09:19:59.964Z,99464.87
2023-01-29T09:22:26.984Z,99456.98
2023-01-29T09:24:54.971Z,99452.88
2023-01-29T09:27:21.890Z,99450.95
2023-01-29T09:29:48.762Z,99450.16
2023-01-29T09:32:19.586Z,99448.80
2023-01-29T09:34:50.101Z,99451.83
2023-01-29T09:37:18.354Z,99457.48
2023-01-29T09:39:45.701Z,99451.81
2023-01-29T09:42:27.730Z,99448.55
2023-01-29T09:45:02.261Z,99440.49
2023-01-29T09:47:32.192Z,99447.73
2023-01-29T09:50:01.186Z,99452.16
2023-01-29T09:52:32.726Z,99447.21
2023-01-29T09:55:00.580Z,99441.99
2023-01-29T09:57:39.249Z,99441.22
2023-01-29T10:00:07.380Z,99441.80
2023-01-29T10:02:44.072Z,99432.44
2023-01-29T10:05:32.191Z,99429.67
2023-01-29T10:08:17.351Z,99426.20
2023-01-29T10:10:50.469Z,99422.14
2023-01-29T10:13:19.305Z,99417.77
2023-01-29T10:15:51.052Z,99410.88
2023-01-29T10:18:44.189Z,99402.17
2023-01-29T10:21:27.450Z,99389.31
2023-01-29T10:24:03.197Z,99386.74
2023-01-29T10:26:33.410Z,99386.10
2023-01-29T10:29:02.796Z,99384.35
2023-01-29T10:31:34.387Z,99385.65
2023-01-29T10:34:07.101Z,99383.13
2023-01-29T10:36:46.820Z,99378.95
2023-01-29T10:39:18.570Z,99369.80
2023-01-29T10:42:16.270Z,99363.10
2023-01-29T10:44:52.236Z,99357.16
2023-01-29T10:47:42.007Z,99344.67
2023-01-29T10:50:15.355Z,99336.25
2023-01-29T10:52:50.075Z,99333.30
2023-01-29T10:55:32.583Z,99321.91
2023-01-29T10:58:06.092Z,99312.60
2023-01-29T11:00:38.214Z,99305.83
2023-01-29T11:03:28.462Z,99305.14
2023-01-29T11:06:26.774Z,99299.40
2023-01-29T11:09:10.052Z,99292.54
2023-01-29T11:11:54.768Z,99289.63
2023-01-29T11:14:26.843Z,99286.55
2023-01-29T11:16:53.978Z,99284.08
2023-01-29T11:19:38.418Z,99281.34
2023-01-29T11:22:05.058Z,99268.15
2023-01-29T11:24:31.777Z,99265.19
2023-01-29T11:27:00.061Z,99256.28
2023-01-29T11:29:39.079Z,99245.45
2023-01-29T11:32:12.062Z,99246.66
2023-01-29T11:34:59.120Z,99241.40
2023-01-29T11:37:32.695Z,99240.33
2023-01-29T11:39:59.446Z,99242.72
2023-01-29T11:42:31.597Z,99243.71
2023-01-29T11:44:58.379Z,99242.02
2023-01-29T11:47:28.835Z,99237.98
2023-01-29T11:50:13.784Z,99235.69
2023-01-29T11:52:43.090Z,99235.32
2023-01-29T11:55:16.237Z,99239.22
2023-01-29T11:57:46.667Z,99233.48
2023-01-29T12:00:24.831Z,99234.03
2023-01-29T12:02:58.130Z,99227.22
2023-01-29T12:05:26.750Z,99230.16
2023-01-29T12:07:56.778Z,99239.89
2023-01-29T12:10:40.498Z,99242.08
2023-01-29T12:13:10.821Z,99245.23
2023-01-29T12:15:38.913Z,99238.52
2023-01-29T12:18:28.073Z,99242.65
2023-01-29T12:21:00.664Z,99244.06
2023-01-29T12:23:46.040Z,99242.30
2023-01-29T12:26:25.710Z,99238.46
2023-01-29T12:29:08.308Z,99235.52
2023-01-29T12:31:55.371Z,99232.02
2023-01-29T12:34:26.768Z,99232.46
2023-01-29T12:37:24.751Z,99227.09
2023-01-29T12:39:52.381Z,99222.72
2023-01-29T12:42:22.992Z,99216.08
2023-01-29T12:44:55.204Z,99217.27
2023-01-29T12:47:31.320Z,99208.77
2023-01-29T12:50:05.616Z,99203.23
2023-01-29T12:52:40.955Z,99200.99
2023-01-29T12:55:26.222Z,99204.42
2023-01-29T12:57:58.946Z,99207.77
2023-01-29T13:00:32.202Z,99205.67
2023-01-29T13:03:08.102Z,99206.56
2023-01-29T13:05:55.917Z,99199.81
2023-01-29T13:08:44.483Z,99205.13
2023-01-29T13:11:18.386Z,99192.81
2023-01-29T13:13:56.748Z,99187.73
2023-01-29T13:16:33.843Z,99188.58
2023-01-29T13:19:06.237Z,99188.46
2023-01-29T13:21:43.959Z,99187.23
2023-01-29T13:24:16.262Z,99183.27
2023-01-29T13:26:47.945Z,99184.79
2023-01-29T13:29:31.057Z,99178.14
2023-01-29T13:32:00.961Z,99176.34
2023-01-29T13:34:42.730Z,99175.60
2023-01-29T13:37:17.909Z,99169.19
2023-01-29T13:39:51.577Z,99168.36
2023-01-29T13:42:22.152Z,99167.09
2023-01-29T13:44:51.654Z,99165.61
2023-01-29T13:47:23.852Z,99167.96
2023-01-29T13:49:59.437Z,99163.52
2023-01-29T13:52:58.294Z,99170.13
2023-01-29T13:55:32.005Z,99162.46
2023-01-29T13:58:01.008Z,99158.02
2023-01-29T14:00:35.341Z,99154.05
2023-01-29T14:03:04.477Z,99151.69
2023-01-29T14:05:31.273Z,99143.46
2023-01-29T14:08:03.617Z,99144.09
2023-01-29T14:10:32.963Z,99143.29
2023-01-29T14:13:19.298Z,99140.80
2023-01-29T14:16:13.674Z,99142.52
2023-01-29T14:18:48.918Z,99145.95
2023-01-29T14:21:16.734Z,99139.05
2023-01-29T14:23:48.175Z,99137.59
2023-01-29T14:26:30.229Z,99133.67
2023-01-29T14:29:18.734Z,99132.36
2023-01-29T14:31:53.905Z,99135.11
2023-01-29T14:34:41.988Z,99133.42
2023-01-29T14:37:16.117Z,99138.84
2023-01-29T14:39:51.924Z,99135.96
2023-01-29T14:42:27.866Z,99132.55
2023-01-29T14:44:54.743Z,99135.70
2023-01-29T14:47:43.598Z,99133.80
2023-01-29T14:50:29.097Z,99136.27
2023-01-29T14:53:05.319Z,99132.67
2023-01-29T14:55:32.022Z,99135.38
2023-01-29T14:57:59.617Z,99135.14
2023-01-29T15:00:31.578Z,99134.45
2023-01-29T15:03:01.916Z,99137.07
2023-01-29T15:05:33.016Z,99129.73
2023-01-29T15:08:08.474Z,99123.10
2023-01-29T15:10:44.909Z,99124.27
2023-01-29T15:13:28.995Z,99130.03
2023-01-29T15:16:05.130Z,99133.74
2023-01-29T15:18:39.893Z,99136.05
2023-01-29T15:21:33.890Z,99132.54
2023-01-29T15:24:06.531Z,99133.95
2023-01-29T15:26:35.952Z,99130.15
2023-01-29T15:29:05.934Z,99129.54
2023-01-29T15:31:34.734Z,99133.13
2023-01-29T15:34:07.281Z,99129.02
2023-01-29T15:36:34.390Z,99123.89
2023-01-29T15:39:19.019Z,99119.30
2023-01-29T15:41:46.255Z,99117.37
2023-01-29T15:44:16.829Z,99124.92
2023-01-29T15:46:48.213Z,99126.69
2023-01-29T15:49:31.106Z,99123.23
2023-01-29T15:52:00.863Z,99116.08
2023-01-29T15:54:31.629Z,99110.85
2023-01-29T15:56:59.775Z,99106.00
2023-01-29T15:59:31.276Z,99099.42
2023-01-29T16:01:58.679Z,99098.27
2023-01-29T16:04:29.128Z,99098.88
2023-01-29T16:06:57.598Z,99099.55
2023-01-29T16:09:26.770Z,99103.23
2023-01-29T16:11:57.586Z,99105.88
2023-01-29T16:14:26.041Z,99104.55
2023-01-29T16:16:53.878Z,99111.05
2023-01-29T16:19:21.327Z,99107.41
2023-01-29T16:21:56.441Z,99101.09
2023-01-29T16:24:25.037Z,99103.70
2023-01-29T16:26:58.489Z,99097.94
2023-01-29T16:29:31.519Z,99092.16
2023-01-29T16:32:02.307Z,99088.54
2023-01-29T16:34:31.601Z,99089.77
2023-01-29T16:37:01.860Z,99089.35
2023-01-29T16:39:33.904Z,99084.29
2023-01-29T16:42:19.964Z,99085.11
2023-01-29T16:44:51.276Z,99080.75
2023-01-29T16:47:35.052Z,99087.79
2023-01-29T16:50:12.623Z,99086.35
2023-01-29T16:52:39.434Z,99093.13
2023-01-29T16:55:13.500Z,99096.80
2023-01-29T16:57:40.539Z,99104.30
2023-01-29T17:00:19.080Z,99102.14
2023-01-29T17:02:46.021Z,99093.89
2023-01-29T17:05:26.441Z,99093.80
2023-01-29T17:07:57.636Z,99093.38
2023-01-29T17:10:26.560Z,99090.05
2023-01-29T17:12:59.142Z,99093.70
2023-01-29T17:15:43.237Z,99089.61
2023-01-29T17:18:20.511Z,99085.20
2023-01-29T17:20:48.508Z,99084.67
2023-01-29T17:23:15.375Z,99081.73
2023-01-29T17:25:42.720Z,99081.63
2023-01-29T17:28:13.588Z,99078.39
2023-01-29T17:30:40.461Z,99072.23
2023-01-29T17:33:16.856Z,99075.84
2023-01-29T17:35:45.296Z,99077.20
2023-01-29T17:38:24.268Z,99075.96
2023-01-29T17:41:09.306Z,99072.60
2023-01-29T17:43:36.260Z,99073.53
2023-01-29T17:46:03.290Z,99067.54
2023-01-29T17:48:31.165Z,99068.29
2023-01-29T17:51:03.083Z,99068.77
2023-01-29T17:53:44.251Z,99069.05
2023-01-29T17:56:17.159Z,99065.32
2023-01-29T17:58:44.716Z,99056.55
2023-01-29T18:01:12.262Z,99048.45
2023-01-29T18:03:39.036Z,99046.25
2023-01-29T18:06:09.160Z,99047.87
2023-01-29T18:08:38.275Z,99047.52
2023-01-29T18:11:05.804Z,99041.80
2023-01-29T18:13:33.070Z,99039.63
2023-01-29T18:16:00.123Z,99044.45
2023-01-29T18:18:27.061Z,99044.52
2023-01-29T18:20:53.906Z,99043.66
2023-01-29T18:23:20.627Z,99046.49
2023-01-29T18:25:47.432Z,99047.30
2023-01-29T18:28:17.364Z,99043.59
2023-01-29T18:30:47.404Z,99040.48
2023-01-29T18:33:16.462Z,99037.56
2023-01-29T18:35:45.764Z,99031.07
2023-01-29T18:38:12.776Z,99030.47
2023-01-29T18:41:03.339Z,99031.66
2023-01-29T18:43:30.124Z,99032.52
2023-01-29T18:45:59.915Z,99025.16
2023-01-29T18:48:26.996Z,99028.85
2023-01-29T18:50:54.033Z,99025.92
2023-01-29T18:53:20.982Z,99029.17
2023-01-29T18:55:57.998Z,99036.48
2023-01-29T18:58:27.798Z,99033.77
2023-01-29T19:01:09.762Z,99026.55
2023-01-29T19:03:37.443Z,99017.52
2023-01-29T19:06:06.509Z,99013.52
2023-01-29T19:08:34.199Z,99011.96
2023-01-29T19:11:04.098Z,99012.64
2023-01-29T19:13:32.338Z,99007.98
2023-01-29T19:15:59.469Z,99002.41
2023-01-29T19:18:27.826Z,99003.02
2023-01-29T19:20:55.770Z,99003.98
2023-01-29T19:23:23.346Z,99001.23
2023-01-29T19:25:50.412Z,99003.93
2023-01-29T19:28:17.158Z,98999.84
2023-01-29T19:30:44.164Z,98996.35
2023-01-29T19:33:11.266Z,98999.61
2023-01-29T19:35:38.771Z,98995.82
2023-01-29T19:38:05.824Z,98989.96
2023-01-29T19:40:32.962Z,98996.08
2023-01-29T19:42:59.782Z,98995.89
2023-01-29T19:45:49.706Z,98997.36
2023-01-29T19:48:14.912Z,98998.39
2023-01-29T19:50:42.580Z,98993.80
2023-01-29T19:53:09.868Z,98992.58
2023-01-29T19:55:36.885Z,98989.98
2023-01-29T19:58:05.053Z,98989.95
2023-01-29T20:00:32.094Z,98982.42
2023-01-29T20:02:59.087Z,98982.41
2023-01-29T20:05:27.430Z,98977.68
2023-01-29T20:07:54.169Z,98974.74
2023-01-29T20:10:21.268Z,98971.77
2023-01-29T20:12:49.069Z,98967.08
2023-01-29T20:15:15.956Z,98969.57
2023-01-29T20:17:45.685Z,98963.21
2023-01-29T20:20:12.938Z,98964.77
2023-01-29T20:22:39.777Z,98970.63
2023-01-29T20:25:06.978Z,98966.67
2023-01-29T20:27:33.823Z,98969.81
2023-01-29T20:30:00.684Z,98968.20
2023-01-29T20:32:27.619Z,98970.55
2023-01-29T20:34:54.591Z,98969.34
2023-01-29T20:37:22.528Z,98971.86
2023-01-29T20:39:49.310Z,98963.64
2023-01-29T20:42:16.241Z,98964.30
2023-01-29T20:44:43.331Z,98965.54
2023-01-29T20:47:10.345Z,98960.50
2023-01-29T20:49:37.262Z,98959.79
2023-01-29T20:52:04.033Z,98956.52
2023-01-29T20:54:33.291Z,98952.30
2023-01-29T20:57:00.531Z,98949.91
2023-01-29T20:59:29.058Z,98948.00
2023-01-29T21:01:56.217Z,98945.16
2023-01-29T21:04:23.247Z,98942.89
2023-01-29T21:06:50.027Z,98942.84
2023-01-29T21:09:16.984Z,98940.48
2023-01-29T21:11:45.203Z,98936.94
2023-01-29T21:14:12.249Z,98939.45
2023-01-29T21:16:39.301Z,98933.15
2023-01-29T21:19:06.592Z,98925.91
2023-01-29T21:21:33.499Z,98916.34
2023-01-29T21:24:00.489Z,98915.72
2023-01-29T21:26:27.508Z,98909.57
2023-01-29T21:28:54.262Z,98906.77
2023-01-29T21:31:21.925Z,98905.50
2023-01-29T21:33:49.739Z,98901.54
2023-01-29T21:36:16.825Z,98896.92
2023-01-29T21:38:43.686Z,98894.45
2023-01-29T21:41:10.593Z,98894.69
2023-01-29T21:43:39.010Z,98893.14
2023-01-29T21:46:12.064Z,98886.41
2023-01-29T21:48:40.274Z,98888.27
2023-01-29T21:51:07.579Z,98888.95
2023-01-29T21:53:34.977Z,98887.17
2023-01-29T21:56:03.275Z,98885.59
2023-01-29T21:58:30.155Z,98882.93
2023-01-29T22:00:57.493Z,98875.36
2023-01-29T22:03:47.020Z,98869.98
2023-01-29T22:06:14.304Z,98861.90
2023-01-29T22:08:41.052Z,98857.63
2023-01-29T22:11:08.208Z,98847.05
2023-01-29T22:13:35.228Z,98847.92
2023-01-29T22:16:02.141Z,98845.30
2023-01-29T22:18:28.913Z,98845.30
2023-01-29T22:20:57.596Z,98842.95
2023-01-29T22:23:25.061Z,98839.16
2023-01-29T22:25:51.816Z,98834.34
2023-01-29T22:28:18.762Z,98828.98
2023-01-29T22:30:45.598Z,98824.56
2023-01-29T22:33:12.887Z,98819.16
2023-01-29T22:35:39.772Z,98809.94
2023-01-29T22:38:06.665Z,98806.34
2023-01-29T22:40:33.431Z,98806.07
2023-01-29T22:43:00.301Z,98800.92
2023-01-29T22:45:27.367Z,98794.33
2023-01-29T22:47:54.198Z,98787.09
2023-01-29T22:50:21.127Z,98782.66
2023-01-29T22:52:54.110Z,98783.76
2023-01-29T22:55:21.318Z,98780.84
2023-01-29T22:57:49.954Z,98783.48
2023-01-29T23:00:17.767Z,98775.91
2023-01-29T23:02:47.441Z,98770.77
2023-01-29T23:05:14.408Z,98766.64
2023-01-29T23:07:41.467Z,98763.60
2023-01-29T23:10:10.164Z,98761.80
2023-01-29T23:12:37.575Z,98756.10
2023-01-29T23:15:04.992Z,98746.87
2023-01-29T23:17:32.057Z,98749.53
2023-01-29T23:19:58.845Z,98741.86
2023-01-29T23:22:25.558Z,98741.98
2023-01-29T23:24:52.904Z,98737.51
2023-01-29T23:27:20.092Z,98734.02
2023-01-29T23:29:48.582Z,98736.41
2023-01-29T23:32:18.616Z,98730.96
2023-01-29T23:34:45.435Z,98722.89
2023-01-29T23:37:12.406Z,98714.83
2023-01-29T23:39:39.194Z,98706.48
2023-01-29T23:42:05.973Z,98702.34
2023-01-29T23:44:32.736Z,98693.32
2023-01-29T23:46:59.836Z,98689.30
2023-01-29T23:49:26.610Z,98686.85
2023-01-29T23:51:53.585Z,98684.05
2023-01-29T23:54:20.406Z,98682.29
2023-01-29T23:56:47.314Z,98682.73
2023-01-29T23:59:15.276Z,98671.98
